sensor_id;sensor_type;location;lat;lon;timestamp;P1;durP1;ratioP1;P2;durP2;ratioP2
14738;SDS011;7461;52.440;13.540;2023-07-08T00:00:26;12.00;;;11.10;;
14738;SDS011;7461;52.440;13.540;2023-07-08T00:02:54;13.07;;;12.15;;
14738;SDS011;7461;52.440;13.540;2023-07-08T00:05:25;12.98;;;12.07;;
14738;SDS011;7461;52.440;13.540;2023-07-08T00:08:01;12.57;;;11.38;;
14738;SDS011;7461;52.440;13.540;2023-07-08T00:10:36;11.63;;;10.93;;
14738;SDS011;7461;52.440;13.540;2023-07-08T00:13:13;11.65;;;10.85;;
14738;SDS011;7461;52.440;13.540;2023-07-08T00:15:48;11.88;;;10.98;;
14738;SDS011;7461;52.440;13.540;2023-07-08T00:18:23;12.43;;;11.43;;
14738;SDS011;7461;52.440;13.540;2023-07-08T00:21:07;11.45;;;10.63;;
14738;SDS011;7461;52.440;13.540;2023-07-08T00:23:45;11.18;;;10.32;;
14738;SDS011;7461;52.440;13.540;2023-07-08T00:26:22;11.82;;;11.02;;
14738;SDS011;7461;52.440;13.540;2023-07-08T00:28:59;17.15;;;11.95;;
14738;SDS011;7461;52.440;13.540;2023-07-08T00:31:33;10.32;;;9.57;;
14738;SDS011;7461;52.440;13.540;2023-07-08T00:34:10;10.35;;;9.65;;
14738;SDS011;7461;52.440;13.540;2023-07-08T00:36:51;11.48;;;10.48;;
14738;SDS011;7461;52.440;13.540;2023-07-08T00:39:34;10.25;;;9.52;;
14738;SDS011;7461;52.440;13.540;2023-07-08T00:42:12;10.05;;;9.45;;
14738;SDS011;7461;52.440;13.540;2023-07-08T00:44:51;11.00;;;10.30;;
14738;SDS011;7461;52.440;13.540;2023-07-08T00:47:28;10.82;;;10.10;;
14738;SDS011;7461;52.440;13.540;2023-07-08T00:50:03;11.40;;;10.70;;
14738;SDS011;7461;52.440;13.540;2023-07-08T00:52:45;10.20;;;9.30;;
14738;SDS011;7461;52.440;13.540;2023-07-08T00:55:21;11.00;;;10.23;;
14738;SDS011;7461;52.440;13.540;2023-07-08T00:58:06;9.70;;;8.95;;
14738;SDS011;7461;52.440;13.540;2023-07-08T01:00:42;10.48;;;9.88;;
14738;SDS011;7461;52.440;13.540;2023-07-08T01:03:16;10.38;;;9.60;;
14738;SDS011;7461;52.440;13.540;2023-07-08T01:05:49;10.93;;;9.98;;
14738;SDS011;7461;52.440;13.540;2023-07-08T01:08:23;11.05;;;10.45;;
14738;SDS011;7461;52.440;13.540;2023-07-08T01:10:54;11.13;;;10.32;;
14738;SDS011;7461;52.440;13.540;2023-07-08T01:13:26;10.70;;;9.68;;
14738;SDS011;7461;52.440;13.540;2023-07-08T01:15:54;9.85;;;9.05;;
14738;SDS011;7461;52.440;13.540;2023-07-08T01:18:21;10.77;;;9.93;;
14738;SDS011;7461;52.440;13.540;2023-07-08T01:20:50;9.60;;;8.95;;
14738;SDS011;7461;52.440;13.540;2023-07-08T01:23:21;10.90;;;10.05;;
14738;SDS011;7461;52.440;13.540;2023-07-08T01:25:49;9.65;;;8.98;;
14738;SDS011;7461;52.440;13.540;2023-07-08T01:28:17;10.38;;;9.75;;
14738;SDS011;7461;52.440;13.540;2023-07-08T01:30:44;9.95;;;9.18;;
14738;SDS011;7461;52.440;13.540;2023-07-08T01:33:19;10.95;;;10.25;;
14738;SDS011;7461;52.440;13.540;2023-07-08T01:35:47;9.98;;;9.48;;
14738;SDS011;7461;52.440;13.540;2023-07-08T01:38:16;10.32;;;9.52;;
14738;SDS011;7461;52.440;13.540;2023-07-08T01:40:49;9.52;;;8.93;;
14738;SDS011;7461;52.440;13.540;2023-07-08T01:43:17;8.77;;;8.30;;
14738;SDS011;7461;52.440;13.540;2023-07-08T01:45:44;9.13;;;8.57;;
14738;SDS011;7461;52.440;13.540;2023-07-08T01:48:13;9.05;;;8.48;;
14738;SDS011;7461;52.440;13.540;2023-07-08T01:50:42;10.98;;;10.13;;
14738;SDS011;7461;52.440;13.540;2023-07-08T01:53:10;9.60;;;8.90;;
14738;SDS011;7461;52.440;13.540;2023-07-08T01:55:38;10.40;;;9.57;;
14738;SDS011;7461;52.440;13.540;2023-07-08T01:58:07;10.82;;;10.02;;
14738;SDS011;7461;52.440;13.540;2023-07-08T02:00:34;9.75;;;9.15;;
14738;SDS011;7461;52.440;13.540;2023-07-08T02:03:01;11.68;;;10.73;;
14738;SDS011;7461;52.440;13.540;2023-07-08T02:05:29;10.65;;;9.95;;
14738;SDS011;7461;52.440;13.540;2023-07-08T02:07:56;9.52;;;8.77;;
14738;SDS011;7461;52.440;13.540;2023-07-08T02:10:23;11.95;;;10.93;;
14738;SDS011;7461;52.440;13.540;2023-07-08T02:12:51;9.55;;;9.00;;
14738;SDS011;7461;52.440;13.540;2023-07-08T02:15:20;10.05;;;9.32;;
14738;SDS011;7461;52.440;13.540;2023-07-08T02:17:47;11.02;;;10.32;;
14738;SDS011;7461;52.440;13.540;2023-07-08T02:20:15;11.30;;;10.32;;
14738;SDS011;7461;52.440;13.540;2023-07-08T02:22:42;9.88;;;9.35;;
14738;SDS011;7461;52.440;13.540;2023-07-08T02:25:10;9.57;;;9.07;;
14738;SDS011;7461;52.440;13.540;2023-07-08T02:27:37;10.75;;;10.05;;
14738;SDS011;7461;52.440;13.540;2023-07-08T02:30:05;9.90;;;9.30;;
14738;SDS011;7461;52.440;13.540;2023-07-08T02:32:34;9.85;;;9.25;;
14738;SDS011;7461;52.440;13.540;2023-07-08T02:35:03;10.40;;;9.60;;
14738;SDS011;7461;52.440;13.540;2023-07-08T02:37:31;9.52;;;8.93;;
14738;SDS011;7461;52.440;13.540;2023-07-08T02:39:58;9.35;;;8.55;;
14738;SDS011;7461;52.440;13.540;2023-07-08T02:42:26;9.52;;;8.85;;
14738;SDS011;7461;52.440;13.540;2023-07-08T02:44:53;10.70;;;9.90;;
14738;SDS011;7461;52.440;13.540;2023-07-08T02:47:20;10.30;;;9.60;;
14738;SDS011;7461;52.440;13.540;2023-07-08T02:49:49;9.60;;;8.90;;
14738;SDS011;7461;52.440;13.540;2023-07-08T02:52:17;10.15;;;9.45;;
14738;SDS011;7461;52.440;13.540;2023-07-08T02:54:44;9.00;;;8.50;;
14738;SDS011;7461;52.440;13.540;2023-07-08T02:57:11;8.82;;;8.32;;
14738;SDS011;7461;52.440;13.540;2023-07-08T02:59:38;10.05;;;9.55;;
14738;SDS011;7461;52.440;13.540;2023-07-08T03:02:05;10.77;;;10.07;;
14738;SDS011;7461;52.440;13.540;2023-07-08T03:04:33;9.50;;;8.80;;
14738;SDS011;7461;52.440;13.540;2023-07-08T03:07:05;9.73;;;9.02;;
14738;SDS011;7461;52.440;13.540;2023-07-08T03:09:36;10.05;;;9.20;;
14738;SDS011;7461;52.440;13.540;2023-07-08T03:12:04;10.23;;;9.40;;
14738;SDS011;7461;52.440;13.540;2023-07-08T03:16:59;9.57;;;8.73;;
14738;SDS011;7461;52.440;13.540;2023-07-08T03:19:27;9.60;;;9.00;;
14738;SDS011;7461;52.440;13.540;2023-07-08T03:21:54;11.48;;;10.68;;
14738;SDS011;7461;52.440;13.540;2023-07-08T03:24:22;10.40;;;9.75;;
14738;SDS011;7461;52.440;13.540;2023-07-08T03:26:50;10.35;;;9.73;;
14738;SDS011;7461;52.440;13.540;2023-07-08T03:29:19;10.18;;;9.40;;
14738;SDS011;7461;52.440;13.540;2023-07-08T03:31:47;10.00;;;9.25;;
14738;SDS011;7461;52.440;13.540;2023-07-08T03:34:15;10.23;;;9.30;;
14738;SDS011;7461;52.440;13.540;2023-07-08T03:36:43;9.57;;;8.85;;
14738;SDS011;7461;52.440;13.540;2023-07-08T03:39:14;10.45;;;9.48;;
14738;SDS011;7461;52.440;13.540;2023-07-08T03:41:43;10.45;;;9.65;;
14738;SDS011;7461;52.440;13.540;2023-07-08T03:44:10;9.40;;;8.90;;
14738;SDS011;7461;52.440;13.540;2023-07-08T03:46:37;8.65;;;8.15;;
14738;SDS011;7461;52.440;13.540;2023-07-08T03:49:05;10.48;;;9.88;;
14738;SDS011;7461;52.440;13.540;2023-07-08T03:51:33;9.82;;;9.13;;
14738;SDS011;7461;52.440;13.540;2023-07-08T03:54:01;9.40;;;8.80;;
14738;SDS011;7461;52.440;13.540;2023-07-08T03:56:29;10.95;;;10.15;;
14738;SDS011;7461;52.440;13.540;2023-07-08T03:58:57;10.68;;;9.95;;
14738;SDS011;7461;52.440;13.540;2023-07-08T04:01:25;8.93;;;8.32;;
14738;SDS011;7461;52.440;13.540;2023-07-08T04:03:53;8.90;;;8.30;;
14738;SDS011;7461;52.440;13.540;2023-07-08T04:06:20;10.35;;;9.75;;
14738;SDS011;7461;52.440;13.540;2023-07-08T04:08:47;10.77;;;10.05;;
14738;SDS011;7461;52.440;13.540;2023-07-08T04:11:16;9.82;;;9.23;;
14738;SDS011;7461;52.440;13.540;2023-07-08T04:13:43;9.57;;;9.02;;
14738;SDS011;7461;52.440;13.540;2023-07-08T04:16:16;9.57;;;9.02;;
14738;SDS011;7461;52.440;13.540;2023-07-08T04:18:43;9.95;;;9.35;;
14738;SDS011;7461;52.440;13.540;2023-07-08T04:21:11;10.45;;;9.50;;
14738;SDS011;7461;52.440;13.540;2023-07-08T04:23:38;10.30;;;9.70;;
14738;SDS011;7461;52.440;13.540;2023-07-08T04:26:05;9.90;;;9.20;;
14738;SDS011;7461;52.440;13.540;2023-07-08T04:28:34;8.63;;;8.02;;
14738;SDS011;7461;52.440;13.540;2023-07-08T04:31:02;10.30;;;9.23;;
14738;SDS011;7461;52.440;13.540;2023-07-08T04:33:31;9.30;;;8.60;;
14738;SDS011;7461;52.440;13.540;2023-07-08T04:35:58;9.40;;;8.77;;
14738;SDS011;7461;52.440;13.540;2023-07-08T04:38:25;10.77;;;10.07;;
14738;SDS011;7461;52.440;13.540;2023-07-08T04:40:53;9.55;;;8.88;;
14738;SDS011;7461;52.440;13.540;2023-07-08T04:43:22;10.15;;;9.63;;
14738;SDS011;7461;52.440;13.540;2023-07-08T04:45:54;8.60;;;8.10;;
14738;SDS011;7461;52.440;13.540;2023-07-08T04:48:22;10.85;;;9.93;;
14738;SDS011;7461;52.440;13.540;2023-07-08T04:50:52;9.68;;;9.18;;
14738;SDS011;7461;52.440;13.540;2023-07-08T04:53:19;9.15;;;8.65;;
14738;SDS011;7461;52.440;13.540;2023-07-08T04:55:47;8.85;;;8.35;;
14738;SDS011;7461;52.440;13.540;2023-07-08T04:58:15;10.98;;;10.00;;
14738;SDS011;7461;52.440;13.540;2023-07-08T05:00:42;9.90;;;9.07;;
14738;SDS011;7461;52.440;13.540;2023-07-08T05:03:09;9.80;;;9.13;;
14738;SDS011;7461;52.440;13.540;2023-07-08T05:05:36;8.85;;;8.25;;
14738;SDS011;7461;52.440;13.540;2023-07-08T05:08:05;8.70;;;8.18;;
14738;SDS011;7461;52.440;13.540;2023-07-08T05:10:32;9.60;;;8.95;;
14738;SDS011;7461;52.440;13.540;2023-07-08T05:12:59;9.40;;;8.73;;
14738;SDS011;7461;52.440;13.540;2023-07-08T05:15:27;8.88;;;8.38;;
14738;SDS011;7461;52.440;13.540;2023-07-08T05:17:54;8.98;;;8.48;;
14738;SDS011;7461;52.440;13.540;2023-07-08T05:20:21;10.13;;;9.32;;
14738;SDS011;7461;52.440;13.540;2023-07-08T05:22:48;7.93;;;7.38;;
14738;SDS011;7461;52.440;13.540;2023-07-08T05:25:18;8.80;;;8.20;;
14738;SDS011;7461;52.440;13.540;2023-07-08T05:27:46;7.85;;;7.45;;
14738;SDS011;7461;52.440;13.540;2023-07-08T05:30:14;7.90;;;7.40;;
14738;SDS011;7461;52.440;13.540;2023-07-08T05:32:41;7.75;;;7.25;;
14738;SDS011;7461;52.440;13.540;2023-07-08T05:35:09;8.38;;;7.78;;
14738;SDS011;7461;52.440;13.540;2023-07-08T05:37:36;7.32;;;6.88;;
14738;SDS011;7461;52.440;13.540;2023-07-08T05:40:05;6.85;;;6.47;;
14738;SDS011;7461;52.440;13.540;2023-07-08T05:42:34;6.97;;;6.45;;
14738;SDS011;7461;52.440;13.540;2023-07-08T05:45:01;7.03;;;6.53;;
14738;SDS011;7461;52.440;13.540;2023-07-08T05:47:28;7.95;;;7.55;;
14738;SDS011;7461;52.440;13.540;2023-07-08T05:49:56;6.68;;;6.13;;
14738;SDS011;7461;52.440;13.540;2023-07-08T05:52:23;7.80;;;7.30;;
14738;SDS011;7461;52.440;13.540;2023-07-08T05:54:50;7.95;;;7.55;;
14738;SDS011;7461;52.440;13.540;2023-07-08T05:57:17;6.72;;;6.22;;
14738;SDS011;7461;52.440;13.540;2023-07-08T05:59:46;8.32;;;7.93;;
14738;SDS011;7461;52.440;13.540;2023-07-08T06:02:14;7.57;;;7.18;;
14738;SDS011;7461;52.440;13.540;2023-07-08T06:04:41;7.50;;;7.07;;
14738;SDS011;7461;52.440;13.540;2023-07-08T06:07:09;7.07;;;6.68;;
14738;SDS011;7461;52.440;13.540;2023-07-08T06:09:36;7.78;;;7.25;;
14738;SDS011;7461;52.440;13.540;2023-07-08T06:12:03;7.65;;;7.15;;
14738;SDS011;7461;52.440;13.540;2023-07-08T06:14:31;7.75;;;7.15;;
14738;SDS011;7461;52.440;13.540;2023-07-08T06:16:59;8.63;;;7.78;;
14738;SDS011;7461;52.440;13.540;2023-07-08T06:19:26;7.57;;;6.88;;
14738;SDS011;7461;52.440;13.540;2023-07-08T06:21:53;8.00;;;7.40;;
14738;SDS011;7461;52.440;13.540;2023-07-08T06:24:21;7.10;;;6.78;;
14738;SDS011;7461;52.440;13.540;2023-07-08T06:26:48;7.15;;;6.60;;
14738;SDS011;7461;52.440;13.540;2023-07-08T06:29:15;8.00;;;7.53;;
14738;SDS011;7461;52.440;13.540;2023-07-08T06:31:44;7.70;;;7.30;;
14738;SDS011;7461;52.440;13.540;2023-07-08T06:34:13;8.77;;;8.18;;
14738;SDS011;7461;52.440;13.540;2023-07-08T06:36:40;10.02;;;9.32;;
14738;SDS011;7461;52.440;13.540;2023-07-08T06:39:07;9.43;;;8.73;;
14738;SDS011;7461;52.440;13.540;2023-07-08T06:41:36;12.90;;;11.88;;
14738;SDS011;7461;52.440;13.540;2023-07-08T06:44:03;8.80;;;8.20;;
14738;SDS011;7461;52.440;13.540;2023-07-08T06:46:31;9.05;;;8.50;;
14738;SDS011;7461;52.440;13.540;2023-07-08T06:48:58;7.60;;;7.10;;
14738;SDS011;7461;52.440;13.540;2023-07-08T06:51:27;8.40;;;7.80;;
14738;SDS011;7461;52.440;13.540;2023-07-08T06:53:54;9.82;;;8.88;;
14738;SDS011;7461;52.440;13.540;2023-07-08T06:56:21;8.10;;;7.53;;
14738;SDS011;7461;52.440;13.540;2023-07-08T06:58:48;8.65;;;8.02;;
14738;SDS011;7461;52.440;13.540;2023-07-08T07:01:16;7.60;;;7.10;;
14738;SDS011;7461;52.440;13.540;2023-07-08T07:03:43;7.43;;;7.03;;
14738;SDS011;7461;52.440;13.540;2023-07-08T07:06:10;8.05;;;7.35;;
14738;SDS011;7461;52.440;13.540;2023-07-08T07:08:39;8.85;;;7.70;;
14738;SDS011;7461;52.440;13.540;2023-07-08T07:11:06;7.53;;;7.13;;
14738;SDS011;7461;52.440;13.540;2023-07-08T07:13:32;7.53;;;6.95;;
14738;SDS011;7461;52.440;13.540;2023-07-08T07:15:59;7.57;;;7.07;;
14738;SDS011;7461;52.440;13.540;2023-07-08T07:18:26;7.07;;;6.57;;
14738;SDS011;7461;52.440;13.540;2023-07-08T07:20:54;7.18;;;6.78;;
14738;SDS011;7461;52.440;13.540;2023-07-08T07:23:21;8.82;;;6.88;;
14738;SDS011;7461;52.440;13.540;2023-07-08T07:25:50;6.80;;;6.35;;
14738;SDS011;7461;52.440;13.540;2023-07-08T07:28:17;7.15;;;6.57;;
14738;SDS011;7461;52.440;13.540;2023-07-08T07:30:45;6.68;;;6.18;;
14738;SDS011;7461;52.440;13.540;2023-07-08T07:33:12;33.28;;;18.55;;
14738;SDS011;7461;52.440;13.540;2023-07-08T07:35:43;6.68;;;6.20;;
14738;SDS011;7461;52.440;13.540;2023-07-08T07:38:10;6.35;;;6.00;;
14738;SDS011;7461;52.440;13.540;2023-07-08T07:40:38;6.07;;;5.70;;
14738;SDS011;7461;52.440;13.540;2023-07-08T07:43:07;6.82;;;6.43;;
14738;SDS011;7461;52.440;13.540;2023-07-08T07:45:34;7.95;;;7.35;;
14738;SDS011;7461;52.440;13.540;2023-07-08T07:48:02;6.38;;;5.88;;
14738;SDS011;7461;52.440;13.540;2023-07-08T07:50:29;9.20;;;8.52;;
14738;SDS011;7461;52.440;13.540;2023-07-08T07:52:57;6.32;;;5.82;;
14738;SDS011;7461;52.440;13.540;2023-07-08T07:55:24;7.25;;;6.22;;
14738;SDS011;7461;52.440;13.540;2023-07-08T07:57:51;6.20;;;5.72;;
14738;SDS011;7461;52.440;13.540;2023-07-08T08:00:20;5.95;;;5.53;;
14738;SDS011;7461;52.440;13.540;2023-07-08T08:02:47;5.57;;;5.28;;
14738;SDS011;7461;52.440;13.540;2023-07-08T08:05:14;6.95;;;6.55;;
14738;SDS011;7461;52.440;13.540;2023-07-08T08:07:41;7.30;;;6.82;;
14738;SDS011;7461;52.440;13.540;2023-07-08T08:10:09;7.15;;;6.55;;
14738;SDS011;7461;52.440;13.540;2023-07-08T08:12:36;7.78;;;7.07;;
14738;SDS011;7461;52.440;13.540;2023-07-08T08:15:03;7.97;;;6.93;;
14738;SDS011;7461;52.440;13.540;2023-07-08T08:17:32;6.88;;;6.47;;
14738;SDS011;7461;52.440;13.540;2023-07-08T08:19:59;7.40;;;7.00;;
14738;SDS011;7461;52.440;13.540;2023-07-08T08:22:27;6.70;;;6.22;;
14738;SDS011;7461;52.440;13.540;2023-07-08T08:24:54;6.32;;;5.75;;
14738;SDS011;7461;52.440;13.540;2023-07-08T08:27:21;7.40;;;6.85;;
14738;SDS011;7461;52.440;13.540;2023-07-08T08:29:48;6.13;;;5.82;;
14738;SDS011;7461;52.440;13.540;2023-07-08T08:32:15;6.88;;;6.32;;
14738;SDS011;7461;52.440;13.540;2023-07-08T08:34:44;6.70;;;6.30;;
14738;SDS011;7461;52.440;13.540;2023-07-08T08:37:12;5.93;;;5.22;;
14738;SDS011;7461;52.440;13.540;2023-07-08T08:39:39;6.45;;;6.05;;
14738;SDS011;7461;52.440;13.540;2023-07-08T08:42:07;7.30;;;6.68;;
14738;SDS011;7461;52.440;13.540;2023-07-08T08:44:40;5.20;;;4.90;;
14738;SDS011;7461;52.440;13.540;2023-07-08T08:47:11;4.78;;;4.55;;
14738;SDS011;7461;52.440;13.540;2023-07-08T08:49:43;5.35;;;5.05;;
14738;SDS011;7461;52.440;13.540;2023-07-08T08:52:13;6.53;;;6.03;;
14738;SDS011;7461;52.440;13.540;2023-07-08T08:54:40;5.25;;;4.95;;
14738;SDS011;7461;52.440;13.540;2023-07-08T08:57:12;10.18;;;9.23;;
14738;SDS011;7461;52.440;13.540;2023-07-08T08:59:45;12.98;;;11.95;;
14738;SDS011;7461;52.440;13.540;2023-07-08T09:02:23;6.45;;;5.85;;
14738;SDS011;7461;52.440;13.540;2023-07-08T09:04:52;5.72;;;5.32;;
14738;SDS011;7461;52.440;13.540;2023-07-08T09:07:21;4.60;;;4.20;;
14738;SDS011;7461;52.440;13.540;2023-07-08T09:09:50;4.15;;;3.83;;
14738;SDS011;7461;52.440;13.540;2023-07-08T09:12:20;6.03;;;4.32;;
14738;SDS011;7461;52.440;13.540;2023-07-08T09:17:22;4.90;;;4.60;;
14738;SDS011;7461;52.440;13.540;2023-07-08T09:19:57;4.75;;;4.45;;
14738;SDS011;7461;52.440;13.540;2023-07-08T09:22:28;4.38;;;4.18;;
14738;SDS011;7461;52.440;13.540;2023-07-08T09:24:59;4.68;;;4.43;;
14738;SDS011;7461;52.440;13.540;2023-07-08T09:27:28;7.07;;;4.40;;
14738;SDS011;7461;52.440;13.540;2023-07-08T09:29:55;5.45;;;5.05;;
14738;SDS011;7461;52.440;13.540;2023-07-08T09:32:24;4.18;;;3.88;;
14738;SDS011;7461;52.440;13.540;2023-07-08T09:34:53;4.47;;;4.28;;
14738;SDS011;7461;52.440;13.540;2023-07-08T09:37:22;10.88;;;4.57;;
14738;SDS011;7461;52.440;13.540;2023-07-08T09:39:53;4.45;;;4.13;;
14738;SDS011;7461;52.440;13.540;2023-07-08T09:42:22;6.28;;;4.43;;
14738;SDS011;7461;52.440;13.540;2023-07-08T09:44:54;8.43;;;5.43;;
14738;SDS011;7461;52.440;13.540;2023-07-08T09:47:23;5.35;;;5.05;;
14738;SDS011;7461;52.440;13.540;2023-07-08T09:49:51;4.47;;;4.28;;
14738;SDS011;7461;52.440;13.540;2023-07-08T09:52:19;4.05;;;3.75;;
14738;SDS011;7461;52.440;13.540;2023-07-08T09:54:49;4.85;;;4.65;;
14738;SDS011;7461;52.440;13.540;2023-07-08T09:57:24;3.97;;;3.58;;
14738;SDS011;7461;52.440;13.540;2023-07-08T09:59:54;3.92;;;3.63;;
14738;SDS011;7461;52.440;13.540;2023-07-08T10:02:30;4.97;;;4.47;;
14738;SDS011;7461;52.440;13.540;2023-07-08T10:04:59;4.15;;;3.95;;
14738;SDS011;7461;52.440;13.540;2023-07-08T10:07:27;3.97;;;3.78;;
14738;SDS011;7461;52.440;13.540;2023-07-08T10:09:56;4.35;;;4.05;;
14738;SDS011;7461;52.440;13.540;2023-07-08T10:12:25;3.88;;;3.58;;
14738;SDS011;7461;52.440;13.540;2023-07-08T10:14:54;4.72;;;4.43;;
14738;SDS011;7461;52.440;13.540;2023-07-08T10:17:23;4.72;;;4.25;;
14738;SDS011;7461;52.440;13.540;2023-07-08T10:19:50;4.30;;;4.00;;
14738;SDS011;7461;52.440;13.540;2023-07-08T10:22:21;3.90;;;3.60;;
14738;SDS011;7461;52.440;13.540;2023-07-08T10:25:03;4.10;;;3.90;;
14738;SDS011;7461;52.440;13.540;2023-07-08T10:27:39;4.80;;;4.38;;
14738;SDS011;7461;52.440;13.540;2023-07-08T10:30:11;3.95;;;3.75;;
14738;SDS011;7461;52.440;13.540;2023-07-08T10:32:44;3.97;;;3.70;;
14738;SDS011;7461;52.440;13.540;2023-07-08T10:35:18;4.32;;;4.03;;
14738;SDS011;7461;52.440;13.540;2023-07-08T10:37:56;4.60;;;4.20;;
14738;SDS011;7461;52.440;13.540;2023-07-08T10:40:29;4.45;;;4.15;;
14738;SDS011;7461;52.440;13.540;2023-07-08T10:43:04;5.65;;;5.05;;
14738;SDS011;7461;52.440;13.540;2023-07-08T10:45:34;4.07;;;3.78;;
14738;SDS011;7461;52.440;13.540;2023-07-08T10:48:07;3.53;;;3.33;;
14738;SDS011;7461;52.440;13.540;2023-07-08T10:50:43;4.78;;;4.38;;
14738;SDS011;7461;52.440;13.540;2023-07-08T10:53:17;4.75;;;4.45;;
14738;SDS011;7461;52.440;13.540;2023-07-08T10:55:50;4.38;;;4.07;;
14738;SDS011;7461;52.440;13.540;2023-07-08T11:01:03;6.32;;;6.03;;
14738;SDS011;7461;52.440;13.540;2023-07-08T11:03:42;5.43;;;5.03;;
14738;SDS011;7461;52.440;13.540;2023-07-08T11:06:14;4.30;;;3.95;;
14738;SDS011;7461;52.440;13.540;2023-07-08T11:08:44;4.88;;;4.47;;
14738;SDS011;7461;52.440;13.540;2023-07-08T11:11:15;4.68;;;4.20;;
14738;SDS011;7461;52.440;13.540;2023-07-08T11:13:47;4.55;;;4.15;;
14738;SDS011;7461;52.440;13.540;2023-07-08T11:16:19;5.13;;;4.82;;
14738;SDS011;7461;52.440;13.540;2023-07-08T11:18:48;4.82;;;4.55;;
14738;SDS011;7461;52.440;13.540;2023-07-08T11:21:19;4.82;;;4.38;;
14738;SDS011;7461;52.440;13.540;2023-07-08T11:23:50;4.90;;;4.18;;
14738;SDS011;7461;52.440;13.540;2023-07-08T11:26:18;4.97;;;4.57;;
14738;SDS011;7461;52.440;13.540;2023-07-08T11:28:47;4.97;;;4.50;;
14738;SDS011;7461;52.440;13.540;2023-07-08T11:31:17;4.57;;;4.00;;
14738;SDS011;7461;52.440;13.540;2023-07-08T11:33:44;4.75;;;4.35;;
14738;SDS011;7461;52.440;13.540;2023-07-08T11:36:12;5.30;;;4.90;;
14738;SDS011;7461;52.440;13.540;2023-07-08T11:38:46;4.43;;;4.22;;
14738;SDS011;7461;52.440;13.540;2023-07-08T11:41:15;4.20;;;4.00;;
14738;SDS011;7461;52.440;13.540;2023-07-08T11:43:45;5.30;;;4.90;;
14738;SDS011;7461;52.440;13.540;2023-07-08T11:46:14;4.25;;;3.95;;
14738;SDS011;7461;52.440;13.540;2023-07-08T11:48:43;4.88;;;4.57;;
14738;SDS011;7461;52.440;13.540;2023-07-08T11:51:14;5.78;;;5.38;;
14738;SDS011;7461;52.440;13.540;2023-07-08T11:53:46;6.40;;;5.90;;
14738;SDS011;7461;52.440;13.540;2023-07-08T11:56:21;4.60;;;4.28;;
14738;SDS011;7461;52.440;13.540;2023-07-08T12:01:37;4.20;;;3.90;;
14738;SDS011;7461;52.440;13.540;2023-07-08T12:04:17;4.82;;;4.40;;
14738;SDS011;7461;52.440;13.540;2023-07-08T12:06:48;4.75;;;4.35;;
14738;SDS011;7461;52.440;13.540;2023-07-08T12:09:22;3.95;;;3.72;;
14738;SDS011;7461;52.440;13.540;2023-07-08T12:11:52;5.50;;;4.05;;
14738;SDS011;7461;52.440;13.540;2023-07-08T12:14:19;5.75;;;5.35;;
14738;SDS011;7461;52.440;13.540;2023-07-08T12:16:47;4.93;;;4.53;;
14738;SDS011;7461;52.440;13.540;2023-07-08T12:19:17;5.38;;;4.85;;
14738;SDS011;7461;52.440;13.540;2023-07-08T12:21:44;4.25;;;4.05;;
14738;SDS011;7461;52.440;13.540;2023-07-08T12:24:12;4.80;;;4.32;;
14738;SDS011;7461;52.440;13.540;2023-07-08T12:26:40;4.30;;;4.10;;
14738;SDS011;7461;52.440;13.540;2023-07-08T12:29:08;4.50;;;4.20;;
14738;SDS011;7461;52.440;13.540;2023-07-08T12:31:36;4.30;;;4.00;;
14738;SDS011;7461;52.440;13.540;2023-07-08T12:34:04;5.25;;;4.95;;
14738;SDS011;7461;52.440;13.540;2023-07-08T12:36:33;5.32;;;4.82;;
14738;SDS011;7461;52.440;13.540;2023-07-08T12:39:00;6.10;;;5.60;;
14738;SDS011;7461;52.440;13.540;2023-07-08T12:41:28;5.65;;;4.85;;
14738;SDS011;7461;52.440;13.540;2023-07-08T12:43:57;4.97;;;4.57;;
14738;SDS011;7461;52.440;13.540;2023-07-08T12:46:24;6.13;;;5.63;;
14738;SDS011;7461;52.440;13.540;2023-07-08T12:48:52;5.72;;;5.32;;
14738;SDS011;7461;52.440;13.540;2023-07-08T12:51:20;4.40;;;4.10;;
14738;SDS011;7461;52.440;13.540;2023-07-08T12:53:49;5.43;;;5.05;;
14738;SDS011;7461;52.440;13.540;2023-07-08T12:56:17;8.48;;;5.47;;
14738;SDS011;7461;52.440;13.540;2023-07-08T12:58:46;5.60;;;5.20;;
14738;SDS011;7461;52.440;13.540;2023-07-08T13:01:16;5.60;;;5.10;;
14738;SDS011;7461;52.440;13.540;2023-07-08T13:03:44;5.47;;;5.18;;
14738;SDS011;7461;52.440;13.540;2023-07-08T13:06:12;5.07;;;4.78;;
14738;SDS011;7461;52.440;13.540;2023-07-08T13:08:42;4.70;;;4.40;;
14738;SDS011;7461;52.440;13.540;2023-07-08T13:11:13;4.85;;;4.53;;
14738;SDS011;7461;52.440;13.540;2023-07-08T13:13:44;5.47;;;4.90;;
14738;SDS011;7461;52.440;13.540;2023-07-08T13:16:13;4.95;;;4.65;;
14738;SDS011;7461;52.440;13.540;2023-07-08T13:18:41;5.20;;;4.90;;
14738;SDS011;7461;52.440;13.540;2023-07-08T13:21:09;4.95;;;4.65;;
14738;SDS011;7461;52.440;13.540;2023-07-08T13:23:37;5.40;;;5.05;;
14738;SDS011;7461;52.440;13.540;2023-07-08T13:26:12;4.70;;;4.40;;
14738;SDS011;7461;52.440;13.540;2023-07-08T13:28:40;5.35;;;4.97;;
14738;SDS011;7461;52.440;13.540;2023-07-08T13:31:14;5.28;;;4.97;;
14738;SDS011;7461;52.440;13.540;2023-07-08T13:33:46;5.95;;;5.45;;
14738;SDS011;7461;52.440;13.540;2023-07-08T13:36:15;4.72;;;4.40;;
14738;SDS011;7461;52.440;13.540;2023-07-08T13:38:43;5.13;;;4.75;;
14738;SDS011;7461;52.440;13.540;2023-07-08T13:41:11;5.35;;;5.05;;
14738;SDS011;7461;52.440;13.540;2023-07-08T13:43:46;5.47;;;5.15;;
14738;SDS011;7461;52.440;13.540;2023-07-08T13:46:30;4.95;;;4.65;;
14738;SDS011;7461;52.440;13.540;2023-07-08T13:49:00;5.65;;;5.15;;
14738;SDS011;7461;52.440;13.540;2023-07-08T13:51:31;4.72;;;4.40;;
14738;SDS011;7461;52.440;13.540;2023-07-08T13:54:00;4.40;;;4.10;;
14738;SDS011;7461;52.440;13.540;2023-07-08T13:56:29;5.82;;;5.32;;
14738;SDS011;7461;52.440;13.540;2023-07-08T13:59:02;5.43;;;4.93;;
14738;SDS011;7461;52.440;13.540;2023-07-08T14:01:30;5.88;;;5.47;;
14738;SDS011;7461;52.440;13.540;2023-07-08T14:03:57;5.28;;;4.93;;
14738;SDS011;7461;52.440;13.540;2023-07-08T14:06:28;5.13;;;4.72;;
14738;SDS011;7461;52.440;13.540;2023-07-08T14:08:57;5.80;;;5.45;;
14738;SDS011;7461;52.440;13.540;2023-07-08T14:11:25;5.68;;;5.18;;
14738;SDS011;7461;52.440;13.540;2023-07-08T14:13:52;4.18;;;3.88;;
14738;SDS011;7461;52.440;13.540;2023-07-08T14:16:23;5.38;;;4.97;;
14738;SDS011;7461;52.440;13.540;2023-07-08T14:18:52;5.70;;;5.30;;
14738;SDS011;7461;52.440;13.540;2023-07-08T14:21:20;5.70;;;5.30;;
14738;SDS011;7461;52.440;13.540;2023-07-08T14:23:47;5.78;;;5.38;;
14738;SDS011;7461;52.440;13.540;2023-07-08T14:26:14;5.38;;;5.07;;
14738;SDS011;7461;52.440;13.540;2023-07-08T14:28:41;4.63;;;4.43;;
14738;SDS011;7461;52.440;13.540;2023-07-08T14:31:09;5.18;;;4.75;;
14738;SDS011;7461;52.440;13.540;2023-07-08T14:33:38;4.72;;;4.43;;
14738;SDS011;7461;52.440;13.540;2023-07-08T14:36:07;5.05;;;4.75;;
14738;SDS011;7461;52.440;13.540;2023-07-08T14:38:34;5.18;;;4.88;;
14738;SDS011;7461;52.440;13.540;2023-07-08T14:41:01;5.45;;;5.07;;
14738;SDS011;7461;52.440;13.540;2023-07-08T14:43:29;6.13;;;5.63;;
14738;SDS011;7461;52.440;13.540;2023-07-08T14:45:58;5.18;;;4.88;;
14738;SDS011;7461;52.440;13.540;2023-07-08T14:48:27;5.43;;;5.07;;
14738;SDS011;7461;52.440;13.540;2023-07-08T14:50:56;4.38;;;4.07;;
14738;SDS011;7461;52.440;13.540;2023-07-08T14:53:23;5.50;;;4.93;;
14738;SDS011;7461;52.440;13.540;2023-07-08T14:55:51;5.53;;;5.20;;
14738;SDS011;7461;52.440;13.540;2023-07-08T14:58:20;4.82;;;4.53;;
14738;SDS011;7461;52.440;13.540;2023-07-08T15:00:48;5.43;;;5.13;;
14738;SDS011;7461;52.440;13.540;2023-07-08T15:03:16;5.60;;;5.30;;
14738;SDS011;7461;52.440;13.540;2023-07-08T15:05:43;6.53;;;6.13;;